Wappingers Falls, NY

11:28 PM EDT on September 21, 2014 (GMT -0400)
Dutchess County | Change Station
CLOSE
Current Station
Airport
Location: Poughkeepsie,
Elevation: 164 ft
Nearby Weather Stations

Elev 164 ft 41.63 °N, 73.88 °W | Updated 35 minutes ago

Overcast
Overcast
68 °F
Feels Like 68 °F
N
7
Wind Variable Wind from Variable

Today
High -- | Low -- °F
--% Chance of Precip.
Yesterday
High -- | Low -- °F
Precip. -- in
6:41 AM 6:54 PM
Waning Crescent, 4% visible
Pressure 29.60 in
Visibility 6.0 miles
Clouds Few 5500 ft
Scattered Clouds 7000 ft
Mostly Cloudy 8500 ft
Dew Point 65 °F
Humidity 90%
Rainfall 0.01 in
Snow Depth Not available.
UV 0 out of 12
Pollen 1.00 out of 12
PM2.5 Good
Flu Activity Not available.
METAR KPOU 220253Z VRB06KT 6SM -RA BR FEW055 SCT070 BKN085 20/18 A2961 RMK AO2 RAB42 SLP023 P0001 60001 T02000183 53005

More Conditions Fewer Conditions

Pressure 29.60 in
Visibility 6.0 miles
Clouds Few 5500 ft
Scattered Clouds 7000 ft
Mostly Cloudy 8500 ft
Dew Point 65 °F
Humidity 90%
Rainfall 0.01 in
Snow Depth Not available.
UV 0 out of 12
Pollen 1.00 out of 12
PM2.5 Good
Flu Activity Not available.
METAR KPOU 220253Z VRB06KT 6SM -RA BR FEW055 SCT070 BKN085 20/18 A2961 RMK AO2 RAB42 SLP023 P0001 60001 T02000183 53005

More Conditions Fewer Conditions

10-Day Weather Forecast

Almanac

Astronomy

Sep. 21, 2014 Rise Set
Actual Time 6:41 AM EDT 6:54 PM EDT
Civil Twilight 6:14 AM EDT 7:22 PM EDT
Nautical Twilight 5:41 AM EDT 7:54 PM EDT
Astronomical Twilight 5:08 AM EDT 8:27 PM EDT
Moon 4:11 AM EDT (9/21) 5:30 PM EDT (9/21)
Length of Visible Light 13h 08m
Length of Day
12h 12m
Tomorrow will be 2m 46s shorter.
Waning Crescent, 4% of the Moon is Illuminated
Today
Waning Crescent
Sep 24
New
Oct 1
First Quarter
Oct 8
Full
Oct 15
Last Quarter

Today's Extremes

State Highs State Lows

Community

WunderPhotos

Upload Photos

1,755,382 photos uploaded!

WunderBlogs® & News

Nearby

Air Quality

  Air Quality AQ Index Pollutant
Yesterday Good
OZONE
Yesterday Good
PM2.5
Current Good
PM2.5
Sunday Good
OZONE
Sunday Good
PM2.5
Monday Good
OZONE
Monday Good
PM2.5

Snow Depth

Station Depth Elevation
No new snow has been reported.

Earthquake Activity

City Distance Mag. Time & Date
No recent earthquake activity has been reported nearby.
Minimum magnitude displayed is 2.5.

Coastal Water Temperatures

Place Temperature
No Stations Reporting

Nearby Weather Stations